Time;durP1;ratioP1;P1;durP2;ratioP2;P2;SDS_P1;SDS_P2;PMS_P1;PMS_P2;Temp;Humidity;BMP_temperature;BMP_pressure;BME280_temperature;BME280_humidity;BME280_pressure;Samples;Min_cycle;Max_cycle;Signal;HPM_P1;HPM_P2
2022/05/10 00:01:18;;;;;;;4.55;1.30;;;;;;;13.30;100.00;98960.09;15284200;19;20053;-55
2022/05/10 00:06:27;;;;;;;4.85;1.40;;;;;;;13.25;100.00;98957.91;15292379;19;20018;-53
2022/05/10 00:11:32;;;;;;;4.28;1.40;;;;;;;13.18;100.00;98959.56;15294197;19;20018;-58
2022/05/10 00:16:41;;;;;;;3.58;1.50;;;;;;;13.14;100.00;98956.34;15291775;19;20007;-56
2022/05/10 00:21:49;;;;;;;5.53;1.50;;;;;;;13.03;100.00;98952.09;15287750;19;20201;-59
2022/05/10 00:26:55;;;;;;;3.78;1.48;;;;;;;12.98;100.00;98950.88;15289375;19;20424;-58
2022/05/10 00:32:02;;;;;;;3.03;1.58;;;;;;;12.91;100.00;98940.72;15286462;19;20017;-59
2022/05/10 00:37:12;;;;;;;3.80;1.70;;;;;;;12.87;100.00;98943.91;15292969;19;20027;-60
2022/05/10 00:42:22;;;;;;;3.58;1.50;;;;;;;12.78;100.00;98934.91;15289940;19;20026;-54
2022/05/10 00:47:31;;;;;;;2.63;1.52;;;;;;;12.71;100.00;98931.16;15292217;19;20029;-55
2022/05/10 00:52:48;;;;;;;3.40;1.50;;;;;;;12.64;100.00;98928.28;15288413;19;20082;-56
2022/05/10 00:57:58;;;;;;;4.72;1.70;;;;;;;12.44;100.00;98919.56;15288927;19;20043;-54
2022/05/10 01:03:13;;;;;;;4.28;1.40;;;;;;;12.38;100.00;98912.09;15282063;19;20086;-56
2022/05/10 01:08:24;;;;;;;2.67;1.55;;;;;;;12.35;100.00;98907.84;15290078;19;20020;-57
2022/05/10 01:13:34;;;;;;;2.85;1.48;;;;;;;12.37;100.00;98916.66;15288553;19;20014;-55
2022/05/10 01:18:41;;;;;;;2.20;1.35;;;;;;;12.38;100.00;98912.94;15289165;19;20014;-60
2022/05/10 01:24:27;;;;;;;4.22;1.50;;;;;;;12.39;100.00;98908.41;15289188;19;20061;-58
2022/05/10 01:29:40;;;;;;;2.03;1.42;;;;;;;12.33;100.00;98908.03;15292739;19;20024;-55
2022/05/10 01:34:47;;;;;;;3.38;1.50;;;;;;;12.31;100.00;98906.50;15285537;19;20027;-56
2022/05/10 01:39:58;;;;;;;3.58;1.60;;;;;;;12.25;100.00;98899.00;15281049;19;20125;-56
2022/05/10 01:45:13;;;;;;;3.50;1.42;;;;;;;12.20;100.00;98891.41;15287290;19;20039;-56
2022/05/10 01:50:24;;;;;;;2.05;1.40;;;;;;;12.15;100.00;98885.66;15290229;19;20018;-57
2022/05/10 01:55:31;;;;;;;3.42;1.70;;;;;;;12.09;100.00;98875.47;15289826;19;20073;-58
2022/05/10 02:00:39;;;;;;;2.53;1.50;;;;;;;12.07;100.00;98872.94;15286529;19;20492;-58
2022/05/10 02:05:52;;;;;;;4.03;1.55;;;;;;;12.02;100.00;98869.84;15287417;19;20039;-58
2022/05/10 02:11:02;;;;;;;1.98;1.33;;;;;;;11.97;100.00;98873.00;15286419;19;20035;-57
2022/05/10 02:16:20;;;;;;;2.00;1.38;;;;;;;11.93;100.00;98871.66;15293929;19;20018;-54
2022/05/10 02:21:31;;;;;;;2.30;1.50;;;;;;;11.85;100.00;98872.44;15294599;19;20094;-55
2022/05/10 02:26:41;;;;;;;3.35;1.67;;;;;;;11.82;100.00;98875.44;15295620;19;20006;-56
2022/05/10 02:37:16;;;;;;;3.35;1.55;;;;;;;11.70;100.00;98860.50;15336810;19;20142;-59
2022/05/10 02:42:24;;;;;;;2.67;1.50;;;;;;;11.67;100.00;98858.13;15354472;19;20011;-58
2022/05/10 02:47:35;;;;;;;3.53;1.80;;;;;;;11.58;100.00;98862.63;15321170;19;20025;-57
2022/05/10 02:52:40;;;;;;;2.75;1.50;;;;;;;11.54;100.00;98847.75;15318304;19;20027;-59
2022/05/10 02:57:48;;;;;;;2.78;1.50;;;;;;;11.46;100.00;98856.63;15315779;19;20011;-57
2022/05/10 03:03:01;;;;;;;4.15;1.60;;;;;;;11.44;100.00;98860.47;15313901;19;20022;-57
2022/05/10 03:08:09;;;;;;;2.85;1.65;;;;;;;11.35;100.00;98857.69;15315461;19;20014;-58
2022/05/10 03:13:14;;;;;;;3.05;1.60;;;;;;;11.34;100.00;98850.63;15306584;19;20010;-59
2022/05/10 03:18:21;;;;;;;3.15;1.73;;;;;;;11.33;100.00;98853.47;15304244;19;20021;-58
2022/05/10 03:23:27;;;;;;;2.67;1.70;;;;;;;11.30;100.00;98846.53;15276984;19;20006;-58
2022/05/10 03:28:32;;;;;;;3.50;1.67;;;;;;;11.27;100.00;98854.94;15276096;19;20043;-59
2022/05/10 03:33:40;;;;;;;4.10;1.60;;;;;;;11.22;100.00;98854.56;15276218;19;20036;-56
2022/05/10 03:38:47;;;;;;;3.65;1.75;;;;;;;11.19;100.00;98841.38;15290040;19;20635;-59
2022/05/10 03:43:52;;;;;;;2.85;1.60;;;;;;;11.19;100.00;98846.78;15281732;19;20022;-59
2022/05/10 03:49:00;;;;;;;3.60;1.70;;;;;;;11.17;100.00;98846.09;15284178;19;20796;-58
2022/05/10 03:54:06;;;;;;;3.40;1.50;;;;;;;11.13;100.00;98836.59;15283757;19;20780;-56
2022/05/10 03:59:11;;;;;;;2.47;1.55;;;;;;;11.10;100.00;98837.75;15288132;19;20010;-57
2022/05/10 04:04:19;;;;;;;1.90;1.30;;;;;;;11.12;100.00;98835.75;15287615;19;20783;-58
2022/05/10 04:09:24;;;;;;;3.00;1.80;;;;;;;11.13;100.00;98837.47;15286510;19;20023;-57
2022/05/10 04:14:29;;;;;;;3.20;1.60;;;;;;;11.23;100.00;98837.38;15287835;19;20126;-56
2022/05/10 04:19:37;;;;;;;3.00;1.60;;;;;;;11.25;100.00;98835.34;15284186;19;20401;-55
2022/05/10 04:24:42;;;;;;;3.00;1.67;;;;;;;11.30;100.00;98837.59;15292143;19;20173;-56
2022/05/10 04:29:47;;;;;;;3.10;1.70;;;;;;;11.35;100.00;98840.69;15285718;19;20392;-57
2022/05/10 04:34:54;;;;;;;1.98;1.70;;;;;;;11.39;100.00;98833.97;15290293;19;20034;-57
2022/05/10 04:45:17;;;;;;;4.30;1.80;;;;;;;11.48;100.00;98833.03;15288748;19;20043;-55
2022/05/10 04:50:25;;;;;;;3.03;2.05;;;;;;;11.55;100.00;98841.34;15283350;19;21008;-57
2022/05/10 04:55:31;;;;;;;3.55;1.80;;;;;;;11.62;100.00;98842.41;15287026;19;20082;-52
2022/05/10 05:00:36;;;;;;;3.30;1.85;;;;;;;11.72;100.00;98837.75;15288985;19;20491;-56
2022/05/10 05:11:35;;;;;;;3.63;1.83;;;;;;;12.04;100.00;98842.72;15286472;19;19990;-56
2022/05/10 05:16:40;;;;;;;3.55;1.58;;;;;;;12.22;100.00;98848.88;15283710;19;20035;-56
2022/05/10 05:21:45;;;;;;;3.03;1.52;;;;;;;12.40;100.00;98845.25;15280926;19;20015;-57
2022/05/10 05:26:53;;;;;;;2.25;1.60;;;;;;;12.60;100.00;98833.16;15282298;19;20047;-57
2022/05/10 05:31:59;;;;;;;2.33;1.60;;;;;;;12.80;100.00;98840.97;15285456;19;20018;-55
2022/05/10 05:42:25;;;;;;;3.65;1.70;;;;;;;13.15;100.00;98836.28;15278067;19;20053;-54
2022/05/10 05:47:30;;;;;;;2.13;1.60;;;;;;;13.29;100.00;98831.22;15283519;19;20022;-55
2022/05/10 05:52:35;;;;;;;3.05;1.80;;;;;;;13.43;100.00;98836.00;15278787;19;20018;-57
2022/05/10 05:57:43;;;;;;;2.75;1.65;;;;;;;13.56;100.00;98841.75;15283366;19;20014;-56
2022/05/10 06:02:51;;;;;;;4.15;1.67;;;;;;;13.71;100.00;98835.63;15253096;19;20015;-60
2022/05/10 06:07:56;;;;;;;2.70;1.80;;;;;;;13.87;100.00;98835.59;15281201;19;20055;-59
2022/05/10 06:13:04;;;;;;;2.70;1.63;;;;;;;14.05;100.00;98837.28;15278389;19;20014;-58
2022/05/10 06:18:09;;;;;;;2.58;1.77;;;;;;;14.25;100.00;98826.84;15281326;19;20031;-58
2022/05/10 06:23:15;;;;;;;4.50;1.70;;;;;;;14.48;100.00;98835.06;15281552;19;20027;-58
2022/05/10 06:28:22;;;;;;;2.63;1.80;;;;;;;14.69;100.00;98833.66;15277875;19;20025;-60
2022/05/10 06:33:27;;;;;;;2.88;1.50;;;;;;;14.84;100.00;98835.59;15280091;19;20075;-58
2022/05/10 06:38:34;;;;;;;5.72;1.60;;;;;;;15.00;100.00;98835.47;15280887;19;20082;-58
2022/05/10 06:43:42;;;;;;;3.28;1.60;;;;;;;15.21;100.00;98831.28;15276055;19;20014;-54
2022/05/10 06:48:54;;;;;;;3.22;1.80;;;;;;;15.37;100.00;98831.13;15277155;19;20018;-55
2022/05/10 06:53:59;;;;;;;2.80;1.70;;;;;;;15.57;100.00;98827.94;15275684;19;20011;-51
2022/05/10 06:59:07;;;;;;;4.18;1.70;;;;;;;15.79;100.00;98820.75;15274104;19;20455;-54
2022/05/10 07:04:12;;;;;;;2.28;1.50;;;;;;;16.05;100.00;98821.38;15274983;19;20015;-51
2022/05/10 07:09:18;;;;;;;3.90;1.70;;;;;;;16.35;100.00;98813.22;15278826;19;20015;-52
2022/05/10 07:14:25;;;;;;;2.80;1.65;;;;;;;16.66;100.00;98812.97;15287706;19;20659;-56
2022/05/10 07:19:31;;;;;;;1.73;1.40;;;;;;;16.99;100.00;98809.81;15295726;19;20035;-52
2022/05/10 07:24:37;;;;;;;3.90;1.55;;;;;;;17.37;100.00;98795.94;15289110;19;20015;-52
2022/05/10 07:29:45;;;;;;;3.58;1.30;;;;;;;17.96;100.00;98798.44;15288722;19;20014;-51
2022/05/10 07:40:42;;;;;;;3.33;1.30;;;;;;;18.53;100.00;98795.59;15289734;19;19995;-51
2022/05/10 07:45:54;;;;;;;4.55;1.60;;;;;;;18.73;100.00;98799.28;15290446;19;20011;-56
2022/05/10 07:51:00;;;;;;;5.10;1.30;;;;;;;18.85;100.00;98794.03;15289290;19;20758;-57
2022/05/10 07:56:06;;;;;;;5.20;1.60;;;;;;;18.94;100.00;98794.72;15291425;19;20031;-56
2022/05/10 08:01:32;;;;;;;3.70;1.40;;;;;;;19.11;100.00;98788.91;15290644;19;20035;-54
2022/05/10 08:06:37;;;;;;;1.83;1.40;;;;;;;19.28;100.00;98792.06;15292206;19;20033;-58
2022/05/10 08:11:43;;;;;;;2.03;1.20;;;;;;;19.38;100.00;98785.13;15288452;19;20022;-55
2022/05/10 08:16:50;;;;;;;3.60;1.67;;;;;;;19.55;100.00;98784.72;15291443;19;20764;-54
2022/05/10 08:21:58;;;;;;;2.40;1.30;;;;;;;19.72;100.00;98776.91;15289602;19;20018;-54
2022/05/10 08:27:04;;;;;;;2.85;1.40;;;;;;;19.94;100.00;98772.06;15290167;19;20365;-55
2022/05/10 08:32:11;;;;;;;3.10;1.50;;;;;;;20.15;100.00;98770.97;15284859;19;20011;-58
2022/05/10 08:37:16;;;;;;;1.85;1.30;;;;;;;20.41;100.00;98768.31;15285436;19;20011;-56
2022/05/10 08:42:25;;;;;;;3.85;1.30;;;;;;;20.54;100.00;98762.81;15285998;19;20022;-59
2022/05/10 08:47:33;;;;;;;3.67;1.25;;;;;;;20.63;100.00;98763.41;15288584;19;20058;-51
2022/05/10 08:52:42;;;;;;;2.55;1.20;;;;;;;20.74;95.17;98759.13;15284336;19;20058;-55
2022/05/10 08:57:51;;;;;;;3.75;1.20;;;;;;;20.89;100.00;98743.25;15284695;19;20052;-55
2022/05/10 09:03:02;;;;;;;2.17;1.40;;;;;;;21.03;99.25;98737.69;15286169;19;20031;-58
2022/05/10 09:08:15;;;;;;;1.67;1.10;;;;;;;21.11;95.59;98742.91;15281791;19;20025;-56
2022/05/10 09:13:23;;;;;;;2.05;1.20;;;;;;;21.31;96.88;98733.69;15284568;19;20009;-55
2022/05/10 09:18:33;;;;;;;3.05;1.10;;;;;;;21.45;86.68;98724.31;15287959;19;20043;-62
2022/05/10 09:23:45;;;;;;;2.60;1.13;;;;;;;21.60;80.47;98728.59;15285005;19;20034;-56
2022/05/10 09:29:00;;;;;;;2.22;0.90;;;;;;;21.80;68.05;98722.91;15286261;19;20014;-58
2022/05/10 09:39:36;;;;;;;4.55;1.00;;;;;;;22.38;71.88;98718.88;15278774;19;20037;-54
2022/05/10 09:44:41;;;;;;;1.30;0.82;;;;;;;22.54;63.80;98713.81;15280775;19;20463;-56
2022/05/10 09:49:48;;;;;;;2.17;0.90;;;;;;;22.64;62.04;98714.09;15285321;19;20027;-57
2022/05/10 09:54:56;;;;;;;1.25;0.70;;;;;;;22.72;56.92;98707.44;15287204;19;20014;-58
2022/05/10 10:00:01;;;;;;;1.67;0.88;;;;;;;22.76;59.13;98701.25;15284340;19;20039;-53
2022/05/10 10:05:31;;;;;;;1.23;0.77;;;;;;;22.73;59.44;98698.13;15282426;19;20030;-53
2022/05/10 10:10:40;;;;;;;1.40;0.90;;;;;;;22.53;60.88;98699.28;15277074;19;20028;-55
2022/05/10 10:15:46;;;;;;;1.60;0.80;;;;;;;22.47;64.38;98695.56;15278582;19;20391;-53
2022/05/10 10:20:57;;;;;;;1.17;0.90;;;;;;;22.46;59.64;98685.63;15273031;19;20471;-57
2022/05/10 10:26:08;;;;;;;4.65;0.85;;;;;;;22.76;61.40;98681.19;15270284;19;20034;-56
2022/05/10 10:31:19;;;;;;;3.05;0.80;;;;;;;22.76;58.41;98673.78;15277303;19;20035;-57
2022/05/10 10:36:31;;;;;;;2.03;0.88;;;;;;;22.84;58.80;98663.53;15280878;19;20014;-56
2022/05/10 10:41:42;;;;;;;1.75;0.82;;;;;;;22.89;60.81;98667.25;15279518;19;20040;-57
2022/05/10 10:46:55;;;;;;;4.57;0.70;;;;;;;23.22;57.53;98667.81;15278536;19;20027;-59
2022/05/10 10:52:03;;;;;;;1.20;0.80;;;;;;;23.28;56.44;98644.03;15294029;19;20018;-60
2022/05/10 10:57:39;;;;;;;1.60;0.90;;;;;;;23.38;51.67;98638.78;15294891;19;20479;-59
2022/05/10 11:03:03;;;;;;;1.42;0.80;;;;;;;23.40;51.96;98639.38;15295750;19;20011;-57
2022/05/10 11:08:25;;;;;;;1.85;0.70;;;;;;;23.60;51.19;98632.66;15295981;19;20010;-53
2022/05/10 11:13:41;;;;;;;1.20;0.80;;;;;;;23.72;50.11;98621.59;15293249;19;20475;-55
2022/05/10 11:18:59;;;;;;;1.38;0.70;;;;;;;23.63;49.32;98630.25;15265403;19;20113;-56
2022/05/10 11:24:20;;;;;;;1.50;0.68;;;;;;;23.64;49.24;98620.06;15293339;19;20011;-53
2022/05/10 11:29:36;;;;;;;1.27;0.60;;;;;;;23.98;48.80;98615.59;15293799;19;20015;-54
2022/05/10 11:35:02;;;;;;;2.70;0.70;;;;;;;24.36;48.83;98602.28;15295315;19;20048;-57
2022/05/10 11:40:45;;;;;;;1.23;0.70;;;;;;;24.66;47.36;98597.53;15293151;19;20109;-55
2022/05/10 11:46:35;;;;;;;1.15;0.60;;;;;;;24.81;44.79;98589.59;15288398;19;20006;-59
2022/05/10 11:52:07;;;;;;;3.75;0.75;;;;;;;24.60;44.68;98582.84;15286824;19;20028;-55
2022/05/10 11:57:17;;;;;;;1.75;0.77;;;;;;;24.82;45.84;98584.88;15290206;19;20025;-56
2022/05/10 12:02:45;;;;;;;2.07;0.70;;;;;;;24.79;42.99;98580.72;15289325;19;20023;-57
2022/05/10 12:07:51;;;;;;;0.70;0.70;;;;;;;24.77;44.40;98567.22;15291695;19;20626;-57
2022/05/10 12:13:08;;;;;;;2.10;0.68;;;;;;;24.91;43.34;98556.66;15288733;19;20019;-59
2022/05/10 12:24:05;;;;;;;2.00;0.60;;;;;;;25.15;44.07;98553.72;15284228;19;20002;-58
2022/05/10 12:29:48;;;;;;;1.35;0.60;;;;;;;24.81;42.69;98548.25;15288598;19;20014;-60
2022/05/10 12:34:55;;;;;;;1.27;0.60;;;;;;;25.14;44.58;98532.75;15289985;19;20021;-60
2022/05/10 12:40:05;;;;;;;0.80;0.70;;;;;;;25.58;41.94;98531.16;15288893;19;20011;-56
2022/05/10 12:45:32;;;;;;;1.10;0.70;;;;;;;25.82;40.38;98527.00;15284616;19;20356;-55
2022/05/10 12:50:50;;;;;;;1.52;0.65;;;;;;;25.38;40.43;98514.06;15290236;19;20496;-56
2022/05/10 12:56:04;;;;;;;2.75;0.63;;;;;;;26.30;37.75;98510.69;15283860;19;20006;-57
2022/05/10 13:01:15;;;;;;;2.30;0.80;;;;;;;26.46;38.44;98508.88;15285894;19;20081;-54
2022/05/10 13:06:23;;;;;;;4.87;0.70;;;;;;;25.95;39.67;98502.84;15285197;19;20622;-58
2022/05/10 13:11:33;;;;;;;1.17;0.70;;;;;;;26.12;38.27;98484.28;15284647;19;20665;-58
2022/05/10 13:16:47;;;;;;;0.70;0.60;;;;;;;26.06;39.77;98488.03;15287650;19;20010;-59
2022/05/10 13:21:53;;;;;;;1.35;0.70;;;;;;;25.67;41.13;98483.50;15283553;19;20018;-55
2022/05/10 13:27:01;;;;;;;0.60;0.60;;;;;;;25.54;40.48;98470.97;15279708;19;20014;-57
2022/05/10 13:32:11;;;;;;;1.05;0.60;;;;;;;26.02;40.37;98464.00;15283802;19;20022;-55
2022/05/10 13:37:25;;;;;;;3.58;0.63;;;;;;;26.00;40.42;98454.03;15283214;19;20007;-56
2022/05/10 13:42:31;;;;;;;0.73;0.70;;;;;;;25.77;40.77;98457.13;15277098;19;20023;-53
2022/05/10 13:47:39;;;;;;;1.10;0.60;;;;;;;25.54;40.75;98443.38;15280733;19;20006;-54
2022/05/10 13:52:51;;;;;;;2.28;0.77;;;;;;;25.45;39.72;98444.09;15283022;19;20022;-58
2022/05/10 13:57:59;;;;;;;0.63;0.50;;;;;;;25.44;40.76;98437.75;15278842;19;20480;-60
2022/05/10 14:03:15;;;;;;;1.50;0.60;;;;;;;25.40;38.81;98425.53;15281233;19;20031;-59
2022/05/10 14:08:24;;;;;;;1.02;0.60;;;;;;;25.42;39.90;98423.38;15283276;19;20014;-59
2022/05/10 14:13:30;;;;;;;1.73;0.50;;;;;;;25.46;39.70;98412.66;15281214;19;20014;-58
2022/05/10 14:18:43;;;;;;;0.98;0.60;;;;;;;25.16;41.24;98414.78;15274509;19;20039;-59
2022/05/10 14:23:48;;;;;;;0.85;0.50;;;;;;;25.22;40.81;98407.41;15275435;19;20378;-57
2022/05/10 14:28:56;;;;;;;2.25;0.60;;;;;;;25.43;40.53;98391.97;15275495;19;20364;-57
2022/05/10 14:34:04;;;;;;;1.17;0.70;;;;;;;25.41;40.98;98405.19;15277894;19;20622;-58
2022/05/10 14:39:23;;;;;;;1.73;0.80;;;;;;;25.68;42.05;98394.13;15280522;19;20022;-57
2022/05/10 14:44:42;;;;;;;1.65;0.63;;;;;;;25.77;42.36;98397.25;15278736;19;21033;-57
2022/05/10 14:49:51;;;;;;;2.65;0.60;;;;;;;25.48;41.68;98393.94;15278896;19;20024;-59
2022/05/10 14:54:58;;;;;;;2.57;0.67;;;;;;;25.23;41.65;98396.09;15281741;19;20019;-58
2022/05/10 15:00:27;;;;;;;0.70;0.60;;;;;;;25.18;42.44;98386.94;15277475;19;20039;-58
2022/05/10 15:05:39;;;;;;;2.33;0.70;;;;;;;25.30;42.18;98384.06;15263918;19;20014;-56
2022/05/10 15:10:50;;;;;;;0.60;0.60;;;;;;;24.97;41.99;98375.69;15275395;19;20018;-55
2022/05/10 15:15:57;;;;;;;0.82;0.70;;;;;;;24.71;43.00;98369.03;15276648;19;20015;-52
2022/05/10 15:21:05;;;;;;;1.25;0.70;;;;;;;24.63;43.05;98356.50;15280231;19;20349;-55
2022/05/10 15:26:15;;;;;;;1.58;0.70;;;;;;;24.47;42.87;98364.53;15275235;19;20099;-56
2022/05/10 15:31:22;;;;;;;2.53;0.70;;;;;;;24.47;44.24;98356.28;15274356;19;20010;-57
2022/05/10 15:36:30;;;;;;;1.25;0.68;;;;;;;24.52;41.50;98347.25;15278888;19;20511;-57
2022/05/10 15:41:35;;;;;;;0.50;0.50;;;;;;;24.46;40.66;98338.09;15284671;19;20015;-55
2022/05/10 15:46:42;;;;;;;1.20;0.60;;;;;;;24.42;40.83;98344.34;15288525;19;20018;-57
2022/05/10 15:51:54;;;;;;;0.82;0.50;;;;;;;24.36;40.20;98331.63;15290866;19;20476;-54
2022/05/10 15:57:00;;;;;;;1.02;0.60;;;;;;;24.38;39.83;98332.19;15291283;19;20018;-51
2022/05/10 16:02:06;;;;;;;1.85;0.75;;;;;;;24.49;40.36;98333.16;15290890;19;20019;-60
2022/05/10 16:07:15;;;;;;;1.25;0.60;;;;;;;24.76;39.61;98317.59;15283323;19;20364;-58
2022/05/10 16:12:22;;;;;;;1.00;0.68;;;;;;;24.80;40.05;98312.38;15288782;19;20006;-52
2022/05/10 16:17:27;;;;;;;0.50;0.47;;;;;;;24.83;41.29;98309.13;15291305;19;20010;-57
2022/05/10 16:22:42;;;;;;;0.93;0.60;;;;;;;24.94;41.36;98307.28;15285970;19;20567;-53
2022/05/10 16:33:09;;;;;;;0.95;0.68;;;;;;;24.48;41.95;98299.28;15287641;19;20011;-56
2022/05/10 16:38:16;;;;;;;4.30;0.90;;;;;;;24.36;42.48;98291.13;15281067;19;20011;-55
2022/05/10 16:43:22;;;;;;;1.45;0.73;;;;;;;24.47;42.43;98292.94;15283373;19;20014;-53
2022/05/10 16:48:28;;;;;;;2.45;0.75;;;;;;;24.53;43.17;98293.84;15289543;19;20032;-57
2022/05/10 16:53:36;;;;;;;1.83;0.60;;;;;;;24.50;44.13;98277.84;15282458;19;20014;-56
2022/05/10 16:58:44;;;;;;;2.77;0.80;;;;;;;24.51;44.88;98282.28;15286174;19;20007;-54
2022/05/10 17:03:49;;;;;;;2.20;0.80;;;;;;;24.67;44.85;98279.69;15284874;19;20071;-51
2022/05/10 17:08:57;;;;;;;1.40;0.90;;;;;;;24.65;45.55;98282.72;15283221;19;20508;-53
2022/05/10 17:14:07;;;;;;;3.95;0.80;;;;;;;24.78;44.91;98281.50;15280083;19;20010;-54
2022/05/10 17:19:13;;;;;;;1.52;0.70;;;;;;;24.64;45.73;98277.47;15283824;19;20015;-50
2022/05/10 17:24:20;;;;;;;2.80;0.70;;;;;;;24.27;46.93;98271.50;15284772;19;20010;-53
2022/05/10 17:29:25;;;;;;;1.05;0.70;;;;;;;24.03;46.66;98270.06;15281754;19;20014;-51
2022/05/10 17:34:30;;;;;;;0.98;0.77;;;;;;;23.90;46.86;98266.53;15283649;19;20043;-54
2022/05/10 17:39:38;;;;;;;2.42;0.90;;;;;;;23.89;46.88;98275.88;15283211;19;20464;-51
2022/05/10 17:44:43;;;;;;;2.47;0.70;;;;;;;23.82;47.48;98266.94;15277388;19;20014;-57
2022/05/10 17:49:51;;;;;;;3.08;0.88;;;;;;;23.57;47.99;98268.25;15283936;19;20050;-58
2022/05/10 17:55:20;;;;;;;1.15;0.73;;;;;;;23.44;49.26;98268.56;15280796;19;20049;-54
2022/05/10 18:00:25;;;;;;;3.80;1.00;;;;;;;23.20;50.30;98266.78;15283696;19;20357;-56
2022/05/10 18:05:31;;;;;;;3.72;1.05;;;;;;;22.99;51.32;98268.28;15279874;19;20010;-57
2022/05/10 18:10:39;;;;;;;2.83;1.10;;;;;;;22.81;51.98;98263.00;15283544;19;20022;-63
2022/05/10 18:15:46;;;;;;;3.38;1.00;;;;;;;22.65;53.10;98265.44;15279774;19;20048;-55
2022/05/10 18:20:52;;;;;;;1.98;1.00;;;;;;;22.49;53.63;98266.22;15279920;19;20018;-57
2022/05/10 18:26:02;;;;;;;3.20;1.17;;;;;;;22.34;55.71;98264.78;15277328;19;20085;-56
2022/05/10 18:31:07;;;;;;;1.20;0.90;;;;;;;22.06;56.41;98262.81;15281396;19;20007;-57
2022/05/10 18:36:12;;;;;;;3.58;1.15;;;;;;;21.92;57.87;98259.50;15283180;19;20021;-52
2022/05/10 18:41:21;;;;;;;2.78;1.08;;;;;;;21.81;58.29;98266.63;15282732;19;20018;-53
2022/05/10 18:46:26;;;;;;;2.78;1.00;;;;;;;21.56;60.54;98267.66;15277180;19;20015;-60
2022/05/10 18:51:32;;;;;;;2.35;1.13;;;;;;;21.51;61.15;98275.78;15276432;19;21266;-57
2022/05/10 18:56:39;;;;;;;2.20;0.90;;;;;;;21.42;61.81;98278.00;15280203;19;20015;-56
2022/05/10 19:01:45;;;;;;;2.30;1.10;;;;;;;21.37;62.96;98277.88;15284803;19;20011;-57
2022/05/10 19:06:53;;;;;;;2.00;1.17;;;;;;;21.30;63.94;98280.72;15274357;19;20019;-57
2022/05/10 19:12:00;;;;;;;3.50;1.30;;;;;;;21.26;65.08;98279.53;15294348;19;20011;-55
2022/05/10 19:17:06;;;;;;;3.10;1.40;;;;;;;21.20;65.97;98286.78;15294604;19;20014;-57
2022/05/10 19:22:11;;;;;;;2.35;1.45;;;;;;;21.17;66.69;98287.25;15287875;19;20018;-55
2022/05/10 19:31:10;;;;;;;3.22;1.42;;;;;;;21.06;67.59;98290.78;15325859;19;20077;-58
2022/05/10 19:36:15;;;;;;;2.25;1.20;;;;;;;20.98;69.16;98283.72;15355564;19;20115;-59
2022/05/10 19:41:21;;;;;;;2.75;1.30;;;;;;;20.87;69.74;98271.69;15348520;19;20018;-61
2022/05/10 19:46:29;;;;;;;1.85;1.20;;;;;;;20.81;70.71;98277.25;15350675;19;20801;-61
2022/05/10 19:51:40;;;;;;;1.95;1.10;;;;;;;20.71;72.58;98275.00;15351268;19;20481;-61
2022/05/10 19:56:46;;;;;;;1.73;1.20;;;;;;;20.62;71.21;98275.34;15352421;19;20010;-59
2022/05/10 20:07:12;;;;;;;2.33;1.30;;;;;;;20.50;75.23;98270.84;15352527;19;20041;-62
2022/05/10 20:12:17;;;;;;;4.38;1.33;;;;;;;20.33;78.46;98271.50;15348645;19;20011;-60
2022/05/10 20:17:25;;;;;;;3.97;1.30;;;;;;;20.23;80.83;98274.75;15350110;19;20019;-58
2022/05/10 20:22:30;;;;;;;1.45;1.20;;;;;;;20.19;78.04;98281.72;15350826;19;20033;-59
2022/05/10 20:27:36;;;;;;;3.55;1.10;;;;;;;20.16;77.02;98276.72;15344602;19;20024;-61
2022/05/10 20:32:44;;;;;;;4.07;1.38;;;;;;;20.15;79.50;98280.53;15347841;19;20511;-58
2022/05/10 20:37:49;;;;;;;1.50;1.10;;;;;;;20.01;82.42;98283.41;15349366;19;20007;-61
2022/05/10 20:42:59;;;;;;;3.40;1.35;;;;;;;19.98;84.52;98286.56;15288152;19;20019;-59
2022/05/10 20:48:08;;;;;;;1.45;1.30;;;;;;;19.93;84.77;98277.38;15287017;19;20014;-61
2022/05/10 20:53:14;;;;;;;2.03;1.20;;;;;;;19.89;84.24;98287.94;15292513;19;20613;-57
2022/05/10 20:58:19;;;;;;;2.72;1.30;;;;;;;19.86;84.64;98282.91;15289006;19;20114;-58
2022/05/10 21:03:27;;;;;;;1.45;1.23;;;;;;;19.86;83.46;98283.75;15288087;19;20490;-58
2022/05/10 21:08:35;;;;;;;2.50;1.30;;;;;;;19.85;84.33;98290.25;15290509;19;20038;-55
2022/05/10 21:13:43;;;;;;;2.70;1.20;;;;;;;19.82;86.74;98287.97;15292208;19;20018;-62
2022/05/10 21:19:09;;;;;;;1.63;1.23;;;;;;;19.77;88.06;98284.22;15291483;19;20011;-50
2022/05/10 21:24:34;;;;;;;2.15;1.27;;;;;;;19.70;86.19;98282.38;15290786;19;20019;-57
2022/05/10 21:35:17;;;;;;;1.60;1.05;;;;;;;19.67;87.88;98274.66;15289162;19;20041;-55
2022/05/10 21:40:24;;;;;;;2.13;1.30;;;;;;;19.63;89.81;98278.88;15289260;19;20031;-57
2022/05/10 21:45:29;;;;;;;4.20;1.50;;;;;;;19.58;89.57;98270.50;15293222;19;20014;-57
2022/05/10 21:50:37;;;;;;;1.95;1.38;;;;;;;19.58;89.39;98270.50;15284898;19;20018;-60
2022/05/10 21:55:42;;;;;;;1.48;1.20;;;;;;;19.55;89.29;98273.72;15287304;19;20037;-58
2022/05/10 22:00:50;;;;;;;1.40;1.30;;;;;;;19.51;89.60;98267.00;15286239;19;20019;-58
2022/05/10 22:06:01;;;;;;;1.30;1.20;;;;;;;19.46;92.45;98261.41;15288679;19;20027;-58
2022/05/10 22:11:06;;;;;;;2.28;1.30;;;;;;;19.38;91.71;98255.13;15284675;19;20943;-58
2022/05/10 22:16:11;;;;;;;3.28;1.30;;;;;;;19.35;94.34;98255.56;15289594;19;20479;-51
2022/05/10 22:21:19;;;;;;;1.35;1.20;;;;;;;19.31;93.08;98251.63;15283997;19;20427;-57
2022/05/10 22:26:24;;;;;;;2.60;1.50;;;;;;;19.20;95.63;98253.16;15286722;19;20034;-53
2022/05/10 22:31:29;;;;;;;3.28;1.30;;;;;;;19.14;96.49;98245.03;15284116;19;20766;-53
2022/05/10 22:36:40;;;;;;;2.88;1.52;;;;;;;18.99;98.19;98251.66;15284167;19;20014;-60
2022/05/10 22:41:45;;;;;;;3.20;1.50;;;;;;;18.91;99.11;98249.13;15282877;19;20018;-59
2022/05/10 22:46:50;;;;;;;2.60;1.27;;;;;;;18.80;100.00;98237.03;15286245;19;20014;-59
2022/05/10 22:51:58;;;;;;;4.45;1.40;;;;;;;18.72;100.00;98243.59;15279359;19;20010;-56
2022/05/10 22:57:03;;;;;;;1.98;1.40;;;;;;;18.63;100.00;98231.25;15285770;19;20007;-63
2022/05/10 23:02:08;;;;;;;2.35;1.40;;;;;;;18.51;100.00;98227.56;15281143;19;20782;-54
2022/05/10 23:07:16;;;;;;;5.25;1.80;;;;;;;18.39;100.00;98230.97;15277500;19;20014;-60
2022/05/10 23:12:21;;;;;;;3.22;1.40;;;;;;;18.29;100.00;98239.59;15283435;19;20010;-57
2022/05/10 23:17:26;;;;;;;2.15;1.40;;;;;;;18.26;100.00;98225.56;15284099;19;20015;-54
2022/05/10 23:22:33;;;;;;;3.88;1.63;;;;;;;18.23;100.00;98226.81;15282103;19;20031;-52
2022/05/10 23:27:40;;;;;;;2.47;1.70;;;;;;;18.14;100.00;98222.66;15280705;19;20074;-57
2022/05/10 23:32:45;;;;;;;5.72;1.83;;;;;;;18.14;100.00;98220.78;15280181;19;20015;-56
2022/05/10 23:37:54;;;;;;;2.95;1.67;;;;;;;18.08;100.00;98210.72;15278990;19;20010;-62
2022/05/10 23:48:16;;;;;;;3.10;1.70;;;;;;;18.01;100.00;98208.00;15282427;19;20022;-61
2022/05/10 23:53:24;;;;;;;8.90;1.70;;;;;;;18.00;100.00;98206.34;15281148;19;20849;-58
2022/05/10 23:58:29;;;;;;;3.78;1.65;;;;;;;17.87;100.00;98201.75;15281721;19;20130;-56
